Latest Weather Observations for Forbes

IDN60801

Issued at 2:04 pm EDT Friday 19 December 2014 (issued every 30 minutes, with the page automatically refreshed every 10 minutes)

About weather observations | Map of weather stations | Latest weather observations for NSW | Other Formats
Station Details ID: 065103 Name: FORBES AIRPORT AWS Lat: -33.36 Lon: 147.92 Height: 230.4 m
Data from the previous 72 hours. | See also: Recent months at Forbes
Date/Time
EDT
Temp
°C
App
Temp
°C
Dew
Point
Rel
Hum
%
Delta-T
°C
Wind Press
QNH
hPa
Press
MSL
hPa
Rain
since 9 am
mm
Dir
 
Spd
km/h
Gust
km/h
Spd
kts
Gust
kts
19/02:00pm 24.8 18.7 2.9 24 10.7 WSW 24 35 13 19 1014.2 1013.1 0.0
19/01:30pm 23.6 18.1 1.9 24 10.4 SSW 20 35 11 19 1014.3 1013.2 0.0
19/01:00pm 24.3 19.1 2.5 24 10.6 SSW 19 30 10 16 1014.6 1013.5 0.0
19/12:30pm 23.6 17.5 3.0 26 10.0 WSW 24 33 13 18 1014.9 1013.8 0.0
19/12:00pm 23.6 17.8 2.4 25 10.2 SW 22 41 12 22 1014.9 1013.8 0.0
19/11:30am 22.6 16.2 3.2 28 9.4 SW 26 37 14 20 1015.0 1013.9 0.0
19/11:00am 21.7 15.2 2.4 28 9.2 SSW 26 37 14 20 1015.1 1014.1 0.0
19/10:30am 21.9 16.3 3.6 30 8.9 SW 22 35 12 19 1015.1 1014.1 0.0
19/10:00am 20.5 15.0 4.1 34 8.0 SSW 22 35 12 19 1014.9 1013.8 0.0
19/09:30am 20.7 15.3 4.7 35 7.9 SSW 22 32 12 17 1014.8 1013.7 0.0
19/09:00am 19.7 14.8 5.0 38 7.2 S 20 30 11 16 1014.8 1013.7 0.0
19/08:30am 18.9 14.3 6.4 44 6.3 SSW 20 28 11 15 1014.8 1013.7 0.0
19/08:00am 17.9 13.3 6.7 48 5.6 SSW 20 30 11 16 1014.4 1013.3 0.0
19/07:30am 17.2 13.3 7.0 51 5.1 SSW 17 24 9 13 1014.0 1012.9 0.0
19/07:00am 16.5 13.7 6.9 53 4.8 SSW 11 15 6 8 1013.5 1012.4 0.0
19/06:30am 15.3 12.2 7.1 58 4.1 SSW 13 15 7 8 1013.0 1012.0 0.0
19/06:00am 13.4 11.7 5.8 60 3.6 SW 4 9 2 5 1012.6 1011.6 0.0
19/05:00am 15.7 12.8 6.7 55 4.5 SSW 11 13 6 7 1012.0 1011.0 0.0
19/04:30am 16.5 13.2 6.6 52 4.9 SSW 13 17 7 9 1011.7 1010.7 0.0
19/04:00am 17.3 13.3 6.5 49 5.4 S 17 24 9 13 1011.4 1010.4 0.0
19/03:30am 17.6 13.5 6.2 47 5.7 S 17 22 9 12 1011.2 1010.1 0.0
19/03:00am 18.3 13.5 5.5 43 6.3 SSW 20 26 11 14 1011.0 1009.9 0.0
19/02:30am 18.7 14.3 4.5 39 6.9 SSW 17 22 9 12 1011.0 1009.9 0.0
19/02:00am 18.5 14.7 3.9 38 7.0 SSW 13 19 7 10 1010.6 1009.5 0.0
19/01:30am 18.4 15.3 3.8 38 7.0 SSW 9 15 5 8 1010.4 1009.3 0.0
19/01:00am 19.1 15.9 3.3 35 7.5 SW 9 17 5 9 1010.2 1009.1 0.0
19/12:30am 21.1 16.8 3.3 31 8.6 SSW 15 20 8 11 1010.2 1009.1 0.0
19/12:00am 22.6 16.6 3.2 28 9.4 SSW 24 37 13 20 1010.0 1008.9 0.0
 
Date/Time
EDT
Temp
°C
App
Temp
°C
Dew
Point
Rel
Hum
%
Delta-T
°C
Wind Press
QNH
hPa
Press
MSL
hPa
Rain
since 9 am
mm
Dir
 
Spd
km/h
Gust
km/h
Spd
kts
Gust
kts
18/11:39pm 23.4 16.5 2.8 26 10.0 SSW 28 46 15 25 1009.8 1008.7 0.0
18/11:30pm 23.6 16.8 3.0 26 10.0 SSW 28 41 15 22 1009.7 1008.6 0.0
18/11:00pm 24.2 17.2 1.8 23 10.7 SSW 28 39 15 21 1009.4 1008.3 0.0
18/10:30pm 24.3 18.8 0.6 21 11.1 SW 19 26 10 14 1008.9 1007.8 0.0
18/10:00pm 23.5 19.1 0.6 22 10.7 SW 13 17 7 9 1008.3 1007.3 0.0
18/09:30pm 23.1 19.2 1.4 24 10.2 WSW 11 13 6 7 1007.9 1006.9 0.0
18/09:00pm 24.4 20.7 0.0 20 11.3 WSW 9 13 5 7 1007.5 1006.5 0.0
18/08:30pm 25.1 20.9 -0.9 18 11.9 WSW 11 17 6 9 1007.3 1006.2 0.0
18/08:00pm 28.1 22.1 -1.9 14 13.8 WSW 20 26 11 14 1007.1 1006.0 0.0
18/07:30pm 29.5 24.0 -1.8 13 14.6 WSW 17 22 9 12 1006.7 1005.6 0.0
18/07:00pm 30.6 22.1 -3.2 11 15.6 WSW 32 44 17 24 1006.3 1005.2 0.0
18/06:30pm 31.1 22.9 -4.1 10 16.0 W 30 44 16 24 1006.1 1005.0 0.0
18/06:00pm 31.7 24.1 -2.3 11 16.0 WSW 28 39 15 21 1005.9 1004.8 0.0
18/05:30pm 32.0 24.2 -3.4 10 16.4 WSW 28 39 15 21 1005.8 1004.7 0.0
18/05:00pm 31.8 22.7 -3.5 10 16.3 WSW 35 50 19 27 1005.9 1004.8 0.0
18/04:39pm 32.6 24.9 -2.9 10 16.6 W 28 46 15 25 1005.7 1004.6 0.0
18/04:30pm 32.2 23.7 -3.2 10 16.4 WSW 32 41 17 22 1005.8 1004.7 0.0
18/04:10pm 32.2 24.1 -3.2 10 16.4 W 30 48 16 26 1005.8 1004.7 0.0
18/04:00pm 32.7 25.0 -2.9 10 16.7 W 28 41 15 22 1005.9 1004.8 0.0
18/03:30pm 31.3 23.6 -2.6 11 15.8 WSW 28 41 15 22 1006.0 1004.9 0.0
18/03:00pm 31.2 25.2 -1.5 12 15.6 W 20 33 11 18 1006.3 1005.2 0.0
18/02:30pm 30.8 24.9 -0.8 13 15.1 WSW 20 43 11 23 1006.6 1005.5 0.0
18/02:00pm 31.0 25.3 0.4 14 15.0 WSW 20 35 11 19 1006.8 1005.7 0.0
18/01:30pm 29.7 24.5 0.3 15 14.2 W 17 28 9 15 1007.1 1006.0 0.0
18/01:00pm 28.4 23.1 -0.7 15 13.8 SW 17 32 9 17 1007.4 1006.4 0.0
18/12:30pm 28.5 22.8 -0.6 15 13.7 SW 19 33 10 18 1007.6 1006.6 0.0
18/12:00pm 28.5 23.3 0.3 16 13.6 SW 17 24 9 13 1007.7 1006.7 0.0
18/11:30am 27.9 21.8 0.6 17 13.1 W 22 30 12 16 1008.0 1007.0 0.0
18/11:00am 27.6 22.4 0.4 17 13.0 SW 17 26 9 14 1008.2 1007.2 0.0
18/10:30am 26.5 21.8 1.0 19 12.2 WSW 15 20 8 11 1008.3 1007.3 0.0
18/10:00am 25.6 22.8 2.3 22 11.4 N 6 9 3 5 1008.4 1007.4 0.0
18/09:30am 24.2 22.3 5.1 29 9.7 NNE 4 9 2 5 1008.5 1007.5 0.0
18/09:00am 22.5 20.6 6.7 36 8.2 ENE 6 9 3 5 1008.5 1007.5 0.0
18/08:30am 20.4 18.3 5.6 38 7.4 SSW 6 9 3 5 1008.5 1007.5 0.0
18/08:00am 18.7 15.7 4.1 38 7.0 SE 9 11 5 6 1008.3 1007.3 0.0
18/07:30am 16.6 14.1 6.4 51 5.1 SE 9 13 5 7 1008.2 1007.2 0.0
18/07:00am 14.1 12.2 6.5 60 3.7 S 6 7 3 4 1008.2 1007.2 0.0
18/06:30am 10.7 9.9 6.5 75 2.0 CALM 0 0 0 0 1008.2 1007.2 0.0
18/06:00am 8.5 6.4 4.1 74 2.0 N 4 7 2 4 1007.8 1006.8 0.0
18/05:30am 10.7 9.9 6.3 74 2.1 CALM 0 0 0 0 1007.0 1005.9 0.0
18/05:00am 12.1 10.3 7.0 71 2.5 ESE 6 7 3 4 1006.8 1005.7 0.0
18/04:30am 12.1 10.0 6.8 70 2.6 SE 7 7 4 4 1006.1 1005.0 0.0
18/04:00am 12.2 10.3 6.5 68 2.8 ENE 6 7 3 4 1006.2 1005.1 0.0
18/03:30am 11.8 11.0 6.5 70 2.5 CALM 0 0 0 0 1006.2 1005.1 0.0
18/03:00am 11.4 10.4 5.7 68 2.7 CALM 0 0 0 0 1005.9 1004.8 0.0
18/02:30am 11.0 9.6 3.8 61 3.2 CALM 0 0 0 0 1005.8 1004.7 0.0
18/02:00am 11.2 9.9 4.2 62 3.2 CALM 0 0 0 0 1005.9 1004.8 0.0
18/01:30am 12.6 10.6 6.9 68 2.8 WSW 7 9 4 5 1006.4 1005.3 0.0
18/01:00am 12.7 11.7 5.8 63 3.3 CALM 0 0 0 0 1006.4 1005.3 0.0
18/12:30am 13.8 12.7 5.2 56 4.1 CALM 0 0 0 0 1006.4 1005.3 0.0
18/12:00am 15.5 13.0 3.9 46 5.4 NNE 6 7 3 4 1006.8 1005.7 0.0
 
Date/Time
EDT
Temp
°C
App
Temp
°C
Dew
Point
Rel
Hum
%
Delta-T
°C
Wind Press
QNH
hPa
Press
MSL
hPa
Rain
since 9 am
mm
Dir
 
Spd
km/h
Gust
km/h
Spd
kts
Gust
kts
17/11:30pm 14.5 12.2 4.8 52 4.6 NE 6 9 3 5 1006.9 1005.8 0.0
17/11:00pm 15.8 14.1 6.0 52 4.8 SSE 4 6 2 3 1006.8 1005.7 0.0
17/10:30pm 16.5 14.5 6.3 51 5.0 S 6 7 3 4 1006.7 1005.6 0.0
17/10:00pm 17.3 15.0 4.9 44 6.0 SE 6 7 3 4 1006.6 1005.5 0.0
17/09:30pm 18.8 16.7 5.6 42 6.5 SE 6 7 3 4 1006.3 1005.2 0.0
17/09:00pm 19.9 19.0 5.9 40 7.0 CALM 0 0 0 0 1006.4 1005.3 0.0
17/08:30pm 22.1 20.5 2.2 27 9.4 CALM 0 0 0 0 1006.2 1005.1 0.0
17/08:00pm 26.2 23.3 -0.8 17 12.5 W 4 6 2 3 1006.2 1005.1 0.0
17/07:30pm 27.9 24.5 -2.0 14 13.7 WSW 6 9 3 5 1005.8 1004.7 0.0
17/07:00pm 28.0 23.3 -2.0 14 13.8 SW 13 19 7 10 1005.3 1004.2 0.0
17/06:30pm 28.2 23.2 -0.9 15 13.6 SW 15 24 8 13 1005.1 1004.0 0.0
17/06:00pm 27.3 22.6 -1.6 15 13.3 SW 13 19 7 10 1005.0 1003.9 0.0
17/05:30pm 28.0 23.3 -2.0 14 13.8 SW 13 22 7 12 1005.0 1003.9 0.0
17/05:00pm 27.8 23.1 -2.1 14 13.7 SW 13 24 7 13 1005.2 1004.1 0.0
17/04:30pm 27.8 23.3 -0.3 16 13.3 SSW 13 20 7 11 1005.4 1004.3 0.0
17/04:00pm 27.4 23.6 -0.6 16 13.2 SW 9 24 5 13 1005.7 1004.6 0.0
17/03:30pm 27.0 21.8 -0.1 17 12.8 WSW 17 24 9 13 1005.8 1004.7 0.0
17/03:00pm 27.4 22.5 -0.6 16 13.2 WSW 15 28 8 15 1006.3 1005.2 0.0
17/02:30pm 26.9 23.4 1.3 19 12.4 WNW 9 20 5 11 1006.6 1005.5 0.0
17/02:00pm 25.7 20.5 0.4 19 12.0 WSW 17 24 9 13 1006.8 1005.7 0.0
17/01:30pm 26.0 22.8 3.3 23 11.3 SSW 9 17 5 9 1007.0 1005.9 0.0
17/01:00pm 25.1 21.0 2.5 23 11.1 WSW 13 22 7 12 1007.2 1006.1 0.0
17/12:30pm 23.4 20.0 1.7 24 10.3 SW 9 24 5 13 1007.2 1006.1 0.0
17/12:00pm 23.5 19.3 1.8 24 10.4 SSW 13 24 7 13 1007.3 1006.2 0.0
17/11:30am 23.0 18.8 1.4 24 10.2 S 13 28 7 15 1007.4 1006.4 0.0
17/11:00am 22.0 17.1 2.2 27 9.4 SSW 17 28 9 15 1007.4 1006.4 0.0
17/10:30am 21.2 16.5 3.0 30 8.7 SSE 17 26 9 14 1007.5 1006.5 0.0
17/10:00am 20.6 15.8 2.4 30 8.6 SSW 17 24 9 13 1007.7 1006.7 0.0
17/09:30am 20.2 14.9 2.1 30 8.5 SSW 19 26 10 14 1007.8 1006.8 0.0
17/09:00am 19.5 13.6 1.5 30 8.3 S 22 28 12 15 1007.8 1006.8 0.0
17/08:30am 19.2 14.0 3.4 35 7.5 S 20 28 11 15 1007.7 1006.7 0.0
17/08:00am 18.5 13.3 3.6 37 7.1 S 20 30 11 16 1007.5 1006.5 0.0
17/07:30am 17.9 12.9 3.4 38 6.8 S 19 26 10 14 1007.0 1005.9 0.0
17/07:00am 17.2 12.1 2.8 38 6.7 SSW 19 26 10 14 1006.7 1005.6 0.0
17/06:30am 16.8 12.3 2.4 38 6.6 SSW 15 20 8 11 1006.3 1005.2 0.0
17/06:00am 16.2 11.8 2.9 41 6.1 SSW 15 19 8 10 1005.8 1004.7 0.0
17/05:30am 16.9 13.0 3.6 41 6.2 SSW 13 19 7 10 1005.4 1004.3 0.0
17/05:00am 17.8 13.3 4.4 41 6.5 SSW 17 26 9 14 1004.7 1003.6 0.0
17/04:30am 18.5 14.0 4.3 39 6.8 SSW 17 24 9 13 1004.5 1003.4 0.0
17/04:00am 18.8 15.2 6.6 45 6.2 SSW 15 20 8 11 1004.0 1003.0 0.0
17/03:30am 19.7 15.2 6.8 43 6.6 SSW 20 30 11 16 1003.7 1002.7 0.0
17/03:00am 20.5 15.3 7.2 42 6.9 SW 24 35 13 19 1003.6 1002.6 0.0
17/02:30am 21.2 14.5 7.4 41 7.2 SSW 32 46 17 25 1003.5 1002.4 0.0
17/02:00am 21.9 15.9 8.8 43 7.1 SSW 30 39 16 21 1003.2 1002.1 0.0
17/01:30am 23.2 17.9 8.5 39 7.9 SSW 26 35 14 19 1003.0 1001.9 0.0
17/01:00am 24.6 17.4 7.7 34 9.1 SSW 35 46 19 25 1002.3 1001.2 0.0
17/12:51am 25.2 19.2 6.9 31 9.7 SSW 28 46 15 25 1002.3 1001.2 0.0
17/12:30am 27.6 21.6 3.3 21 12.2 SSW 24 39 13 21 1001.6 1000.5 0.0
17/12:00am 27.3 21.4 3.7 22 12.0 WSW 24 43 13 23 1001.2 1000.1 0.0
 
Date/Time
EDT
Temp
°C
App
Temp
°C
Dew
Point
Rel
Hum
%
Delta-T
°C
Wind Press
QNH
hPa
Press
MSL
hPa
Rain
since 9 am
mm
Dir
 
Spd
km/h
Gust
km/h
Spd
kts
Gust
kts
16/11:30pm 23.1 20.5 6.0 33 8.8 N 9 13 5 7 1000.0 998.9 0.0
16/11:00pm 24.2 21.4 5.1 29 9.8 N 9 11 5 6 999.8 998.6 0.0
16/10:30pm 24.1 21.3 5.0 29 9.7 N 9 11 5 6 999.8 998.6 0.0
16/10:00pm 25.0 21.3 4.7 27 10.4 N 13 15 7 8 999.7 998.5 0.0
16/09:30pm 23.7 20.3 4.1 28 9.8 NNW 11 13 6 7 999.4 998.3 0.0
16/09:00pm 25.4 21.3 0.1 19 11.9 NNW 11 17 6 9 999.4 998.3 0.0
16/08:30pm 28.7 24.9 -0.5 15 13.8 W 9 11 5 6 999.3 998.2 0.0
16/08:00pm 31.2 26.2 -1.5 12 15.6 W 15 20 8 11 999.1 998.0 0.0
16/07:30pm 33.8 27.9 -2.0 10 17.1 WSW 19 26 10 14 998.9 997.8 0.0
16/07:00pm 35.0 27.9 -4.1 8 18.4 WSW 24 37 13 20 998.8 997.7 0.0
16/06:30pm 35.7 27.2 -3.6 8 18.6 WSW 32 44 17 24 998.7 997.6 0.0
16/06:00pm 36.4 28.1 -4.9 7 19.3 W 30 44 16 24 998.6 997.5 0.0
16/05:30pm 36.5 27.3 -4.8 7 19.3 W 35 50 19 27 998.6 997.5 0.0
16/05:02pm 37.0 28.2 -6.5 6 19.8 WSW 32 50 17 27 998.8 997.7 0.0
16/05:00pm 37.4 28.4 -6.2 6 20.1 WSW 33 50 18 27 998.8 997.7 0.0
16/04:33pm 36.9 26.7 -6.5 6 19.8 W 39 57 21 31 999.1 998.0 0.0
16/04:30pm 36.5 25.5 -6.8 6 19.6 W 43 57 23 31 999.1 998.0 0.0
16/04:13pm 37.2 28.0 -4.3 7 19.6 WSW 35 59 19 32 999.1 998.0 0.0
16/04:00pm 37.3 27.4 -4.2 7 19.8 WSW 39 52 21 28 999.2 998.1 0.0
16/03:49pm 36.7 27.7 -2.9 8 19.1 WSW 35 54 19 29 999.4 998.3 0.0
16/03:30pm 36.7 27.5 -1.3 9 18.8 WSW 37 48 20 26 999.7 998.5 0.0
16/03:00pm 36.6 28.0 0.1 10 18.5 WSW 35 52 19 28 999.9 998.8 0.0
16/02:30pm 36.1 27.8 2.2 12 17.6 WSW 35 56 19 30 1000.1 999.0 0.0

Other Formats:

Comma delimited format used in spreadsheet applications
http://www.bom.gov.au/fwo/IDN60801/IDN60801.94715.axf

JavaScript Object Notation format (JSON) in row-major order
http://www.bom.gov.au/fwo/IDN60801/IDN60801.94715.json